Olympia, WA (98501)

2:51 AM PST on February 09, 2016 (GMT -0800)
East Olympia | | Change Station
CLOSE
Current Station
Personal Weather Station
Location: Olympia, WA
Elevation: 164 ft
Nearby Weather Stations

Elev 164 ft 46.99 °N, 122.87 °W | Updated 4 minutes ago

Fog
Fog
33.7 °F
Feels Like 34 °F
N
0.0
Wind Variable Wind from NNE
Gusts 0.0 mph

Today
High -- | Low -- °F
--% Chance of Precip.
Yesterday
High -- | Low -- °F
Precip. -- in
Pressure 30.24 in
Visibility 0.5 miles
Clouds
Windchill 34 °F
Dew Point 33 °F
Humidity 95%
Rainfall 0.00 in
Snow Depth Not available.
7:25 AM 5:26 PM
New Moon, 1% visible
SPECI KOLM 091039Z AUTO 00000KT 1/2SM FG VV001 00/00 A3024 RMK AO2 T00000000 $
Pressure 30.24 in
Visibility 0.5 miles
Clouds
Windchill 34 °F
Dew Point 33 °F
Humidity 95%
Rainfall 0.00 in
Snow Depth Not available.
7:25 AM 5:26 PM
New Moon, 1% visible
SPECI KOLM 091039Z AUTO 00000KT 1/2SM FG VV001 00/00 A3024 RMK AO2 T00000000 $

10-Day Weather Forecast

Almanac

Astronomy

Feb. 09, 2016 Rise Set
Actual Time
Civil Twilight
Nautical Twilight
Astronomical Twilight
Moon
Length of Visible Light
Length of Day
Tomorrow will be .
, % of the Moon is Illuminated

Today's Extremes

State Highs State Lows

Community

WunderPhotos

Upload Photos

1,891,565 photos uploaded!

WunderBlog® & News

Nearby

Air Quality

  Air Quality AQ Index Pollutant
Not available.

Snow Depth

Station Depth Elevation

Earthquake Activity

City Distance Mag. Time & Date
Minimum magnitude displayed is 2.5.

Coastal Water Temperatures

Place Temperature

Stations

Nearby Weather Stations

Station Location Temp. Windchill Dew Point Humidity Wind Precip. Elev Updated Type
                   

Watches & Warnings

There are currently no watches in effect.